aviador You're here:

KGZH Decoded Metar

EVERGREEN in AL, USA
Report Time2017-08-19 10:53:00
UTC Time2017-08-19 11:13:56
Flight Rules vfr VFR
WindCalm
Visibility9999 m
Phenomena:N/A
Clouds:N/A
Expected CloudBase > 400 ft AGL from Temp-Dew spread
CeilingNone
Temp23°C (ISA +9)
Dew Point22°C (94% RH)
QNH1016 hPa
Density Alt1,493 ft
Elevation256 ft
Report Wrong Elevation
Raw Report
METAR KGZH 191053Z AUTO 00000KT 8SM CLR 23/22 A2999 RMK AO2 SLP151
T02280217=

Extra information for KGZH:More info

Metar Taf Metar & Taf Last 4 Metars F.Rules Stats Wind Profile Meteogram Temp Stats Airport Information Weather charts Add Link Nearby VenuesMetar ALERT Operation Metar Decoded Social comments

AIRNAV info for KGZH